sensor_id;sensor_type;location;lat;lon;timestamp;P1;durP1;ratioP1;P2;durP2;ratioP2
33802;SDS011;20110;53.120;5.786;2022-11-11T00:00:58;14.73;;;8.18;;
33802;SDS011;20110;53.120;5.786;2022-11-11T00:03:37;12.75;;;10.48;;
33802;SDS011;20110;53.120;5.786;2022-11-11T00:06:03;28.25;;;22.45;;
33802;SDS011;20110;53.120;5.786;2022-11-11T00:08:33;21.63;;;9.32;;
33802;SDS011;20110;53.120;5.786;2022-11-11T00:11:03;17.10;;;13.80;;
33802;SDS011;20110;53.120;5.786;2022-11-11T00:13:37;16.00;;;14.38;;
33802;SDS011;20110;53.120;5.786;2022-11-11T00:16:18;11.25;;;8.02;;
33802;SDS011;20110;53.120;5.786;2022-11-11T00:18:45;14.90;;;10.32;;
33802;SDS011;20110;53.120;5.786;2022-11-11T00:21:30;12.57;;;7.65;;
33802;SDS011;20110;53.120;5.786;2022-11-11T00:27:08;29.17;;;22.13;;
33802;SDS011;20110;53.120;5.786;2022-11-11T00:29:35;20.50;;;10.02;;
33802;SDS011;20110;53.120;5.786;2022-11-11T00:32:02;18.25;;;8.93;;
33802;SDS011;20110;53.120;5.786;2022-11-11T00:34:51;11.60;;;8.27;;
33802;SDS011;20110;53.120;5.786;2022-11-11T00:37:38;20.88;;;9.55;;
33802;SDS011;20110;53.120;5.786;2022-11-11T00:40:05;12.82;;;10.27;;
33802;SDS011;20110;53.120;5.786;2022-11-11T00:42:33;16.45;;;9.10;;
33802;SDS011;20110;53.120;5.786;2022-11-11T00:44:59;18.42;;;8.13;;
33802;SDS011;20110;53.120;5.786;2022-11-11T00:47:24;11.48;;;10.30;;
33802;SDS011;20110;53.120;5.786;2022-11-11T00:55:37;13.15;;;5.88;;
33802;SDS011;20110;53.120;5.786;2022-11-11T00:58:03;15.77;;;6.88;;
33802;SDS011;20110;53.120;5.786;2022-11-11T01:00:29;14.52;;;7.57;;
33802;SDS011;20110;53.120;5.786;2022-11-11T01:02:56;13.77;;;9.75;;
33802;SDS011;20110;53.120;5.786;2022-11-11T01:05:23;13.77;;;6.68;;
33802;SDS011;20110;53.120;5.786;2022-11-11T01:07:50;12.18;;;8.30;;
33802;SDS011;20110;53.120;5.786;2022-11-11T01:10:16;18.50;;;9.50;;
33802;SDS011;20110;53.120;5.786;2022-11-11T01:13:03;27.38;;;9.63;;
33802;SDS011;20110;53.120;5.786;2022-11-11T01:15:42;9.10;;;7.28;;
33802;SDS011;20110;53.120;5.786;2022-11-11T01:18:12;12.20;;;7.60;;
33802;SDS011;20110;53.120;5.786;2022-11-11T01:20:41;13.48;;;7.97;;
33802;SDS011;20110;53.120;5.786;2022-11-11T01:23:08;22.33;;;10.20;;
33802;SDS011;20110;53.120;5.786;2022-11-11T01:25:37;23.48;;;9.30;;
33802;SDS011;20110;53.120;5.786;2022-11-11T01:28:06;16.25;;;9.50;;
33802;SDS011;20110;53.120;5.786;2022-11-11T01:30:34;22.65;;;17.00;;
33802;SDS011;20110;53.120;5.786;2022-11-11T01:33:00;11.77;;;9.13;;
33802;SDS011;20110;53.120;5.786;2022-11-11T01:35:27;24.30;;;21.23;;
33802;SDS011;20110;53.120;5.786;2022-11-11T01:37:53;19.27;;;11.00;;
33802;SDS011;20110;53.120;5.786;2022-11-11T01:40:22;12.43;;;7.03;;
33802;SDS011;20110;53.120;5.786;2022-11-11T01:43:30;15.63;;;8.00;;
33802;SDS011;20110;53.120;5.786;2022-11-11T01:45:56;18.50;;;9.65;;
33802;SDS011;20110;53.120;5.786;2022-11-11T01:48:30;20.45;;;8.05;;
33802;SDS011;20110;53.120;5.786;2022-11-11T01:54:03;22.08;;;14.00;;
33802;SDS011;20110;53.120;5.786;2022-11-11T01:56:37;16.27;;;10.07;;
33802;SDS011;20110;53.120;5.786;2022-11-11T01:59:06;11.45;;;8.18;;
33802;SDS011;20110;53.120;5.786;2022-11-11T02:01:36;30.00;;;9.75;;
33802;SDS011;20110;53.120;5.786;2022-11-11T02:04:04;14.77;;;9.35;;
33802;SDS011;20110;53.120;5.786;2022-11-11T02:06:51;16.52;;;12.77;;
33802;SDS011;20110;53.120;5.786;2022-11-11T02:09:21;25.30;;;21.38;;
33802;SDS011;20110;53.120;5.786;2022-11-11T02:11:48;23.10;;;12.15;;
33802;SDS011;20110;53.120;5.786;2022-11-11T02:14:40;20.52;;;9.68;;
33802;SDS011;20110;53.120;5.786;2022-11-11T02:19:47;25.65;;;13.63;;
33802;SDS011;20110;53.120;5.786;2022-11-11T02:22:22;10.32;;;7.63;;
33802;SDS011;20110;53.120;5.786;2022-11-11T02:25:19;14.65;;;13.23;;
33802;SDS011;20110;53.120;5.786;2022-11-11T02:27:50;17.25;;;10.73;;
33802;SDS011;20110;53.120;5.786;2022-11-11T02:30:22;21.92;;;14.43;;
33802;SDS011;20110;53.120;5.786;2022-11-11T02:32:49;17.65;;;13.27;;
33802;SDS011;20110;53.120;5.786;2022-11-11T02:35:18;21.80;;;16.05;;
33802;SDS011;20110;53.120;5.786;2022-11-11T02:37:49;30.52;;;13.88;;
33802;SDS011;20110;53.120;5.786;2022-11-11T02:43:31;15.40;;;8.23;;
33802;SDS011;20110;53.120;5.786;2022-11-11T02:45:58;21.35;;;10.82;;
33802;SDS011;20110;53.120;5.786;2022-11-11T02:48:27;20.42;;;11.60;;
33802;SDS011;20110;53.120;5.786;2022-11-11T02:50:54;27.35;;;14.27;;
33802;SDS011;20110;53.120;5.786;2022-11-11T02:53:22;32.63;;;15.32;;
33802;SDS011;20110;53.120;5.786;2022-11-11T02:55:48;27.13;;;13.10;;
33802;SDS011;20110;53.120;5.786;2022-11-11T02:58:14;23.25;;;16.58;;
33802;SDS011;20110;53.120;5.786;2022-11-11T03:00:41;26.00;;;12.93;;
33802;SDS011;20110;53.120;5.786;2022-11-11T03:03:07;23.40;;;13.68;;
33802;SDS011;20110;53.120;5.786;2022-11-11T03:05:34;29.40;;;14.05;;
33802;SDS011;20110;53.120;5.786;2022-11-11T03:08:00;21.05;;;13.30;;
33802;SDS011;20110;53.120;5.786;2022-11-11T03:10:26;37.33;;;14.27;;
33802;SDS011;20110;53.120;5.786;2022-11-11T03:12:52;24.23;;;13.57;;
33802;SDS011;20110;53.120;5.786;2022-11-11T03:15:19;26.35;;;13.43;;
33802;SDS011;20110;53.120;5.786;2022-11-11T03:17:45;21.70;;;14.13;;
33802;SDS011;20110;53.120;5.786;2022-11-11T03:20:12;27.00;;;20.27;;
33802;SDS011;20110;53.120;5.786;2022-11-11T03:25:33;18.40;;;13.82;;
33802;SDS011;20110;53.120;5.786;2022-11-11T03:28:04;18.67;;;14.60;;
33802;SDS011;20110;53.120;5.786;2022-11-11T03:30:34;22.55;;;18.67;;
33802;SDS011;20110;53.120;5.786;2022-11-11T03:33:02;23.08;;;14.90;;
33802;SDS011;20110;53.120;5.786;2022-11-11T03:35:28;25.90;;;16.90;;
33802;SDS011;20110;53.120;5.786;2022-11-11T03:37:55;26.83;;;17.75;;
33802;SDS011;20110;53.120;5.786;2022-11-11T03:40:42;21.27;;;12.32;;
33802;SDS011;20110;53.120;5.786;2022-11-11T03:43:10;26.27;;;16.52;;
33802;SDS011;20110;53.120;5.786;2022-11-11T03:45:37;30.77;;;21.05;;
33802;SDS011;20110;53.120;5.786;2022-11-11T03:48:04;16.23;;;12.30;;
33802;SDS011;20110;53.120;5.786;2022-11-11T03:50:30;23.08;;;13.68;;
33802;SDS011;20110;53.120;5.786;2022-11-11T03:52:56;41.38;;;22.98;;
33802;SDS011;20110;53.120;5.786;2022-11-11T03:55:22;24.67;;;15.73;;
33802;SDS011;20110;53.120;5.786;2022-11-11T03:57:48;33.80;;;23.30;;
33802;SDS011;20110;53.120;5.786;2022-11-11T04:00:15;26.35;;;20.52;;
33802;SDS011;20110;53.120;5.786;2022-11-11T04:02:50;29.17;;;23.88;;
33802;SDS011;20110;53.120;5.786;2022-11-11T04:05:43;28.38;;;21.27;;
33802;SDS011;20110;53.120;5.786;2022-11-11T04:08:28;20.05;;;13.38;;
33802;SDS011;20110;53.120;5.786;2022-11-11T04:11:13;39.90;;;20.00;;
33802;SDS011;20110;53.120;5.786;2022-11-11T04:13:48;27.08;;;15.55;;
33802;SDS011;20110;53.120;5.786;2022-11-11T04:16:34;36.30;;;21.77;;
33802;SDS011;20110;53.120;5.786;2022-11-11T04:18:59;36.03;;;20.15;;
33802;SDS011;20110;53.120;5.786;2022-11-11T04:21:44;29.40;;;17.08;;
33802;SDS011;20110;53.120;5.786;2022-11-11T04:24:11;38.17;;;19.13;;
33802;SDS011;20110;53.120;5.786;2022-11-11T04:27:05;29.17;;;16.75;;
33802;SDS011;20110;53.120;5.786;2022-11-11T04:29:40;32.30;;;21.52;;
33802;SDS011;20110;53.120;5.786;2022-11-11T04:32:07;28.88;;;18.45;;
33802;SDS011;20110;53.120;5.786;2022-11-11T04:34:57;27.80;;;24.00;;
33802;SDS011;20110;53.120;5.786;2022-11-11T04:37:27;47.15;;;22.90;;
33802;SDS011;20110;53.120;5.786;2022-11-11T04:39:57;38.22;;;27.08;;
33802;SDS011;20110;53.120;5.786;2022-11-11T04:42:41;34.10;;;20.10;;
33802;SDS011;20110;53.120;5.786;2022-11-11T04:45:08;37.45;;;21.13;;
33802;SDS011;20110;53.120;5.786;2022-11-11T04:50:32;40.70;;;25.15;;
33802;SDS011;20110;53.120;5.786;2022-11-11T04:53:04;34.67;;;21.65;;
33802;SDS011;20110;53.120;5.786;2022-11-11T04:55:35;48.53;;;22.52;;
33802;SDS011;20110;53.120;5.786;2022-11-11T05:00:48;37.40;;;20.40;;
33802;SDS011;20110;53.120;5.786;2022-11-11T05:03:15;35.38;;;19.48;;
33802;SDS011;20110;53.120;5.786;2022-11-11T05:08:32;37.88;;;16.08;;
33802;SDS011;20110;53.120;5.786;2022-11-11T05:11:18;33.60;;;17.73;;
33802;SDS011;20110;53.120;5.786;2022-11-11T05:13:48;25.75;;;17.55;;
33802;SDS011;20110;53.120;5.786;2022-11-11T05:19:25;20.40;;;12.88;;
33802;SDS011;20110;53.120;5.786;2022-11-11T05:22:23;33.47;;;23.03;;
33802;SDS011;20110;53.120;5.786;2022-11-11T05:25:06;30.20;;;16.00;;
33802;SDS011;20110;53.120;5.786;2022-11-11T05:27:53;29.92;;;15.07;;
33802;SDS011;20110;53.120;5.786;2022-11-11T05:30:22;30.60;;;24.38;;
33802;SDS011;20110;53.120;5.786;2022-11-11T05:32:49;60.55;;;23.38;;
33802;SDS011;20110;53.120;5.786;2022-11-11T05:35:16;41.33;;;21.70;;
33802;SDS011;20110;53.120;5.786;2022-11-11T05:37:42;34.20;;;19.25;;
33802;SDS011;20110;53.120;5.786;2022-11-11T05:40:28;33.08;;;20.77;;
33802;SDS011;20110;53.120;5.786;2022-11-11T05:42:54;37.67;;;21.98;;
33802;SDS011;20110;53.120;5.786;2022-11-11T05:45:20;48.17;;;29.83;;
33802;SDS011;20110;53.120;5.786;2022-11-11T05:47:46;41.22;;;22.90;;
33802;SDS011;20110;53.120;5.786;2022-11-11T05:50:11;40.90;;;25.15;;
33802;SDS011;20110;53.120;5.786;2022-11-11T05:52:37;42.53;;;22.63;;
33802;SDS011;20110;53.120;5.786;2022-11-11T05:55:03;38.70;;;15.70;;
33802;SDS011;20110;53.120;5.786;2022-11-11T05:57:29;36.35;;;25.00;;
33802;SDS011;20110;53.120;5.786;2022-11-11T05:59:55;40.00;;;21.80;;
33802;SDS011;20110;53.120;5.786;2022-11-11T06:02:22;29.02;;;17.45;;
33802;SDS011;20110;53.120;5.786;2022-11-11T06:04:48;35.92;;;19.27;;
33802;SDS011;20110;53.120;5.786;2022-11-11T06:07:14;31.15;;;19.70;;
33802;SDS011;20110;53.120;5.786;2022-11-11T06:09:40;43.08;;;24.77;;
33802;SDS011;20110;53.120;5.786;2022-11-11T06:12:05;50.22;;;26.70;;
33802;SDS011;20110;53.120;5.786;2022-11-11T06:14:31;45.80;;;20.17;;
33802;SDS011;20110;53.120;5.786;2022-11-11T06:16:57;37.65;;;19.52;;
33802;SDS011;20110;53.120;5.786;2022-11-11T06:19:23;32.28;;;20.70;;
33802;SDS011;20110;53.120;5.786;2022-11-11T06:21:48;48.13;;;24.33;;
33802;SDS011;20110;53.120;5.786;2022-11-11T06:24:20;27.63;;;16.98;;
33802;SDS011;20110;53.120;5.786;2022-11-11T06:26:47;40.83;;;20.98;;
33802;SDS011;20110;53.120;5.786;2022-11-11T06:29:12;48.10;;;30.85;;
33802;SDS011;20110;53.120;5.786;2022-11-11T06:31:38;37.30;;;21.65;;
33802;SDS011;20110;53.120;5.786;2022-11-11T06:34:04;46.40;;;20.88;;
33802;SDS011;20110;53.120;5.786;2022-11-11T06:36:30;47.63;;;26.08;;
33802;SDS011;20110;53.120;5.786;2022-11-11T06:38:56;28.05;;;17.02;;
33802;SDS011;20110;53.120;5.786;2022-11-11T06:41:21;37.10;;;21.85;;
33802;SDS011;20110;53.120;5.786;2022-11-11T06:43:50;25.52;;;15.25;;
33802;SDS011;20110;53.120;5.786;2022-11-11T06:46:22;32.30;;;19.08;;
33802;SDS011;20110;53.120;5.786;2022-11-11T06:48:49;49.42;;;25.27;;
33802;SDS011;20110;53.120;5.786;2022-11-11T06:51:16;46.35;;;34.55;;
33802;SDS011;20110;53.120;5.786;2022-11-11T06:53:42;34.45;;;21.50;;
33802;SDS011;20110;53.120;5.786;2022-11-11T06:56:08;45.10;;;26.15;;
33802;SDS011;20110;53.120;5.786;2022-11-11T06:58:36;34.65;;;20.10;;
33802;SDS011;20110;53.120;5.786;2022-11-11T07:01:06;32.38;;;20.35;;
33802;SDS011;20110;53.120;5.786;2022-11-11T07:03:33;33.47;;;15.43;;
33802;SDS011;20110;53.120;5.786;2022-11-11T07:06:00;40.67;;;22.00;;
33802;SDS011;20110;53.120;5.786;2022-11-11T07:08:28;54.78;;;29.42;;
33802;SDS011;20110;53.120;5.786;2022-11-11T07:10:55;42.88;;;22.27;;
33802;SDS011;20110;53.120;5.786;2022-11-11T07:13:20;40.78;;;25.02;;
33802;SDS011;20110;53.120;5.786;2022-11-11T07:15:46;46.22;;;23.88;;
33802;SDS011;20110;53.120;5.786;2022-11-11T07:18:12;55.08;;;25.38;;
33802;SDS011;20110;53.120;5.786;2022-11-11T07:20:38;33.65;;;20.75;;
33802;SDS011;20110;53.120;5.786;2022-11-11T07:23:05;30.00;;;16.70;;
33802;SDS011;20110;53.120;5.786;2022-11-11T07:25:32;32.58;;;18.10;;
33802;SDS011;20110;53.120;5.786;2022-11-11T07:27:58;45.63;;;24.75;;
33802;SDS011;20110;53.120;5.786;2022-11-11T07:30:24;55.25;;;32.63;;
33802;SDS011;20110;53.120;5.786;2022-11-11T07:32:51;45.45;;;25.75;;
33802;SDS011;20110;53.120;5.786;2022-11-11T07:35:18;50.63;;;23.92;;
33802;SDS011;20110;53.120;5.786;2022-11-11T07:37:45;33.33;;;19.90;;
33802;SDS011;20110;53.120;5.786;2022-11-11T07:40:13;49.33;;;24.92;;
33802;SDS011;20110;53.120;5.786;2022-11-11T07:42:41;43.00;;;28.60;;
33802;SDS011;20110;53.120;5.786;2022-11-11T07:45:08;61.38;;;26.50;;
33802;SDS011;20110;53.120;5.786;2022-11-11T07:47:36;41.05;;;21.63;;
33802;SDS011;20110;53.120;5.786;2022-11-11T07:50:03;48.67;;;25.80;;
33802;SDS011;20110;53.120;5.786;2022-11-11T07:52:32;53.00;;;26.95;;
33802;SDS011;20110;53.120;5.786;2022-11-11T07:54:58;43.70;;;22.25;;
33802;SDS011;20110;53.120;5.786;2022-11-11T07:57:23;45.35;;;24.25;;
33802;SDS011;20110;53.120;5.786;2022-11-11T07:59:49;48.25;;;25.70;;
33802;SDS011;20110;53.120;5.786;2022-11-11T08:02:15;29.02;;;18.50;;
33802;SDS011;20110;53.120;5.786;2022-11-11T08:04:41;34.55;;;19.48;;
33802;SDS011;20110;53.120;5.786;2022-11-11T08:07:07;51.40;;;26.25;;
33802;SDS011;20110;53.120;5.786;2022-11-11T08:09:33;39.03;;;22.45;;
33802;SDS011;20110;53.120;5.786;2022-11-11T08:11:59;45.72;;;25.05;;
33802;SDS011;20110;53.120;5.786;2022-11-11T08:14:43;51.30;;;25.97;;
33802;SDS011;20110;53.120;5.786;2022-11-11T08:17:09;47.38;;;25.80;;
33802;SDS011;20110;53.120;5.786;2022-11-11T08:19:35;30.63;;;18.85;;
33802;SDS011;20110;53.120;5.786;2022-11-11T08:22:01;48.28;;;23.27;;
33802;SDS011;20110;53.120;5.786;2022-11-11T08:24:28;38.70;;;19.85;;
33802;SDS011;20110;53.120;5.786;2022-11-11T08:26:54;47.50;;;27.38;;
33802;SDS011;20110;53.120;5.786;2022-11-11T08:29:19;32.58;;;23.08;;
33802;SDS011;20110;53.120;5.786;2022-11-11T08:31:46;43.47;;;28.50;;
33802;SDS011;20110;53.120;5.786;2022-11-11T08:34:12;43.92;;;28.70;;
33802;SDS011;20110;53.120;5.786;2022-11-11T08:36:38;54.90;;;28.38;;
33802;SDS011;20110;53.120;5.786;2022-11-11T08:39:04;60.55;;;44.28;;
33802;SDS011;20110;53.120;5.786;2022-11-11T08:41:30;30.17;;;17.92;;
33802;SDS011;20110;53.120;5.786;2022-11-11T08:43:56;36.50;;;24.45;;
33802;SDS011;20110;53.120;5.786;2022-11-11T08:46:23;32.35;;;19.38;;
33802;SDS011;20110;53.120;5.786;2022-11-11T08:48:49;43.55;;;28.95;;
33802;SDS011;20110;53.120;5.786;2022-11-11T08:51:16;38.70;;;24.92;;
33802;SDS011;20110;53.120;5.786;2022-11-11T08:53:42;46.13;;;30.58;;
33802;SDS011;20110;53.120;5.786;2022-11-11T08:56:08;52.70;;;30.90;;
33802;SDS011;20110;53.120;5.786;2022-11-11T08:58:36;45.10;;;25.65;;
33802;SDS011;20110;53.120;5.786;2022-11-11T09:01:02;33.42;;;19.42;;
33802;SDS011;20110;53.120;5.786;2022-11-11T09:03:28;38.72;;;21.95;;
33802;SDS011;20110;53.120;5.786;2022-11-11T09:05:55;43.40;;;25.92;;
33802;SDS011;20110;53.120;5.786;2022-11-11T09:08:21;47.47;;;24.38;;
33802;SDS011;20110;53.120;5.786;2022-11-11T09:10:47;52.70;;;31.08;;
33802;SDS011;20110;53.120;5.786;2022-11-11T09:13:13;55.60;;;39.45;;
33802;SDS011;20110;53.120;5.786;2022-11-11T09:15:39;39.70;;;24.15;;
33802;SDS011;20110;53.120;5.786;2022-11-11T09:18:04;37.40;;;24.48;;
33802;SDS011;20110;53.120;5.786;2022-11-11T09:20:30;43.28;;;25.58;;
33802;SDS011;20110;53.120;5.786;2022-11-11T09:22:56;35.70;;;22.75;;
33802;SDS011;20110;53.120;5.786;2022-11-11T09:25:22;46.83;;;25.65;;
33802;SDS011;20110;53.120;5.786;2022-11-11T09:27:58;54.33;;;26.02;;
33802;SDS011;20110;53.120;5.786;2022-11-11T09:30:25;50.53;;;25.83;;
33802;SDS011;20110;53.120;5.786;2022-11-11T09:32:53;36.47;;;20.98;;
33802;SDS011;20110;53.120;5.786;2022-11-11T09:35:19;43.75;;;34.55;;
33802;SDS011;20110;53.120;5.786;2022-11-11T09:37:55;42.78;;;27.05;;
33802;SDS011;20110;53.120;5.786;2022-11-11T09:40:24;46.20;;;29.25;;
33802;SDS011;20110;53.120;5.786;2022-11-11T09:43:12;47.45;;;27.77;;
33802;SDS011;20110;53.120;5.786;2022-11-11T09:57:48;30.33;;;21.88;;
33802;SDS011;20110;53.120;5.786;2022-11-11T10:00:44;44.83;;;28.55;;
33802;SDS011;20110;53.120;5.786;2022-11-11T10:03:20;34.95;;;25.20;;
33802;SDS011;20110;53.120;5.786;2022-11-11T10:06:03;26.52;;;17.50;;
33802;SDS011;20110;53.120;5.786;2022-11-11T10:08:34;41.58;;;22.13;;
33802;SDS011;20110;53.120;5.786;2022-11-11T10:14:37;47.70;;;23.85;;
33802;SDS011;20110;53.120;5.786;2022-11-11T10:17:14;36.53;;;27.48;;
33802;SDS011;20110;53.120;5.786;2022-11-11T10:20:13;49.03;;;25.58;;
33802;SDS011;20110;53.120;5.786;2022-11-11T10:23:04;35.95;;;20.30;;
33802;SDS011;20110;53.120;5.786;2022-11-11T10:25:48;41.55;;;22.02;;
33802;SDS011;20110;53.120;5.786;2022-11-11T10:30:50;39.38;;;24.35;;
33802;SDS011;20110;53.120;5.786;2022-11-11T10:35:53;28.70;;;19.40;;
33802;SDS011;20110;53.120;5.786;2022-11-11T10:38:44;34.20;;;23.27;;
33802;SDS011;20110;53.120;5.786;2022-11-11T10:41:25;36.85;;;25.30;;
33802;SDS011;20110;53.120;5.786;2022-11-11T10:47:41;35.78;;;20.17;;
33802;SDS011;20110;53.120;5.786;2022-11-11T10:53:00;39.15;;;21.67;;
33802;SDS011;20110;53.120;5.786;2022-11-11T10:55:58;49.80;;;29.67;;
33802;SDS011;20110;53.120;5.786;2022-11-11T10:59:13;49.22;;;27.95;;
33802;SDS011;20110;53.120;5.786;2022-11-11T11:01:56;45.65;;;31.15;;
33802;SDS011;20110;53.120;5.786;2022-11-11T11:04:48;26.65;;;17.60;;
33802;SDS011;20110;53.120;5.786;2022-11-11T11:07:26;36.70;;;23.25;;
33802;SDS011;20110;53.120;5.786;2022-11-11T11:15:41;34.58;;;20.92;;
33802;SDS011;20110;53.120;5.786;2022-11-11T11:18:14;42.15;;;29.10;;
33802;SDS011;20110;53.120;5.786;2022-11-11T11:21:04;33.22;;;20.80;;
33802;SDS011;20110;53.120;5.786;2022-11-11T11:23:38;39.25;;;23.23;;
33802;SDS011;20110;53.120;5.786;2022-11-11T11:26:10;35.10;;;20.00;;
33802;SDS011;20110;53.120;5.786;2022-11-11T11:28:52;44.63;;;23.40;;
33802;SDS011;20110;53.120;5.786;2022-11-11T11:31:37;36.83;;;22.38;;
33802;SDS011;20110;53.120;5.786;2022-11-11T11:34:05;26.45;;;17.73;;
33802;SDS011;20110;53.120;5.786;2022-11-11T11:36:31;32.03;;;18.60;;
33802;SDS011;20110;53.120;5.786;2022-11-11T11:38:57;35.53;;;20.50;;
33802;SDS011;20110;53.120;5.786;2022-11-11T11:44:24;43.88;;;21.52;;
33802;SDS011;20110;53.120;5.786;2022-11-11T11:47:39;21.92;;;17.27;;
33802;SDS011;20110;53.120;5.786;2022-11-11T11:55:31;36.53;;;25.02;;
33802;SDS011;20110;53.120;5.786;2022-11-11T12:01:29;32.78;;;20.58;;
33802;SDS011;20110;53.120;5.786;2022-11-11T12:17:01;33.25;;;21.27;;
33802;SDS011;20110;53.120;5.786;2022-11-11T12:28:54;28.52;;;20.00;;
33802;SDS011;20110;53.120;5.786;2022-11-11T12:34:34;48.05;;;23.75;;
33802;SDS011;20110;53.120;5.786;2022-11-11T12:40:34;40.67;;;23.80;;
33802;SDS011;20110;53.120;5.786;2022-11-11T12:49:56;25.30;;;15.45;;
33802;SDS011;20110;53.120;5.786;2022-11-11T12:56:16;42.97;;;23.45;;
33802;SDS011;20110;53.120;5.786;2022-11-11T13:01:45;39.60;;;21.75;;
33802;SDS011;20110;53.120;5.786;2022-11-11T13:10:44;36.33;;;18.60;;
33802;SDS011;20110;53.120;5.786;2022-11-11T13:16:40;33.53;;;19.80;;
33802;SDS011;20110;53.120;5.786;2022-11-11T13:22:11;37.45;;;25.98;;
33802;SDS011;20110;53.120;5.786;2022-11-11T13:25:01;28.77;;;18.30;;
33802;SDS011;20110;53.120;5.786;2022-11-11T13:32:47;33.33;;;20.58;;
33802;SDS011;20110;53.120;5.786;2022-11-11T13:36:26;35.22;;;20.10;;
33802;SDS011;20110;53.120;5.786;2022-11-11T13:38:31;41.30;;;22.83;;
33802;SDS011;20110;53.120;5.786;2022-11-11T13:41:30;36.53;;;20.83;;
33802;SDS011;20110;53.120;5.786;2022-11-11T13:44:02;35.38;;;20.52;;
33802;SDS011;20110;53.120;5.786;2022-11-11T13:46:34;51.80;;;23.20;;
33802;SDS011;20110;53.120;5.786;2022-11-11T13:51:56;19.60;;;13.80;;
33802;SDS011;20110;53.120;5.786;2022-11-11T13:54:47;37.58;;;19.20;;
33802;SDS011;20110;53.120;5.786;2022-11-11T13:57:23;29.48;;;20.90;;
33802;SDS011;20110;53.120;5.786;2022-11-11T14:02:31;36.55;;;20.83;;
33802;SDS011;20110;53.120;5.786;2022-11-11T14:12:47;34.47;;;19.63;;
33802;SDS011;20110;53.120;5.786;2022-11-11T14:15:38;27.65;;;18.00;;
33802;SDS011;20110;53.120;5.786;2022-11-11T14:20:43;36.45;;;21.20;;
33802;SDS011;20110;53.120;5.786;2022-11-11T14:25:40;31.08;;;18.63;;
33802;SDS011;20110;53.120;5.786;2022-11-11T14:28:21;38.47;;;19.95;;
33802;SDS011;20110;53.120;5.786;2022-11-11T14:39:43;31.75;;;20.60;;
33802;SDS011;20110;53.120;5.786;2022-11-11T14:44:58;42.20;;;23.58;;
33802;SDS011;20110;53.120;5.786;2022-11-11T14:50:01;37.75;;;20.88;;
33802;SDS011;20110;53.120;5.786;2022-11-11T14:52:48;29.08;;;16.55;;
33802;SDS011;20110;53.120;5.786;2022-11-11T14:55:18;29.08;;;18.95;;
33802;SDS011;20110;53.120;5.786;2022-11-11T15:00:33;32.22;;;19.27;;
33802;SDS011;20110;53.120;5.786;2022-11-11T15:03:24;32.80;;;21.73;;
33802;SDS011;20110;53.120;5.786;2022-11-11T15:06:09;36.70;;;20.58;;
33802;SDS011;20110;53.120;5.786;2022-11-11T15:09:02;32.35;;;20.45;;
33802;SDS011;20110;53.120;5.786;2022-11-11T15:14:43;32.17;;;17.52;;
33802;SDS011;20110;53.120;5.786;2022-11-11T15:17:31;40.30;;;20.33;;
33802;SDS011;20110;53.120;5.786;2022-11-11T15:26:08;42.17;;;21.00;;
33802;SDS011;20110;53.120;5.786;2022-11-11T15:32:46;25.92;;;16.38;;
33802;SDS011;20110;53.120;5.786;2022-11-11T15:35:23;32.45;;;19.23;;
33802;SDS011;20110;53.120;5.786;2022-11-11T15:37:57;39.42;;;19.88;;
33802;SDS011;20110;53.120;5.786;2022-11-11T15:40:29;36.47;;;20.75;;
33802;SDS011;20110;53.120;5.786;2022-11-11T15:43:14;40.22;;;23.42;;
33802;SDS011;20110;53.120;5.786;2022-11-11T15:45:45;41.67;;;22.77;;
33802;SDS011;20110;53.120;5.786;2022-11-11T15:48:21;36.78;;;21.15;;
33802;SDS011;20110;53.120;5.786;2022-11-11T15:50:52;44.70;;;21.55;;
33802;SDS011;20110;53.120;5.786;2022-11-11T15:53:22;41.38;;;21.02;;
33802;SDS011;20110;53.120;5.786;2022-11-11T15:55:54;37.63;;;20.95;;
33802;SDS011;20110;53.120;5.786;2022-11-11T15:58:26;38.20;;;21.10;;
33802;SDS011;20110;53.120;5.786;2022-11-11T16:00:57;37.63;;;22.10;;
33802;SDS011;20110;53.120;5.786;2022-11-11T16:03:31;41.67;;;23.85;;
33802;SDS011;20110;53.120;5.786;2022-11-11T16:06:06;37.15;;;21.20;;
33802;SDS011;20110;53.120;5.786;2022-11-11T16:08:44;45.33;;;22.63;;
33802;SDS011;20110;53.120;5.786;2022-11-11T16:11:15;41.90;;;22.23;;
33802;SDS011;20110;53.120;5.786;2022-11-11T16:13:57;35.63;;;19.92;;
33802;SDS011;20110;53.120;5.786;2022-11-11T16:16:30;37.23;;;18.83;;
33802;SDS011;20110;53.120;5.786;2022-11-11T16:19:20;33.30;;;18.38;;
33802;SDS011;20110;53.120;5.786;2022-11-11T16:22:05;48.42;;;22.23;;
33802;SDS011;20110;53.120;5.786;2022-11-11T16:24:36;38.83;;;21.00;;
33802;SDS011;20110;53.120;5.786;2022-11-11T16:27:06;37.88;;;21.98;;
33802;SDS011;20110;53.120;5.786;2022-11-11T16:29:35;40.85;;;23.30;;
33802;SDS011;20110;53.120;5.786;2022-11-11T16:32:17;40.90;;;23.30;;
33802;SDS011;20110;53.120;5.786;2022-11-11T16:34:49;29.10;;;17.00;;
33802;SDS011;20110;53.120;5.786;2022-11-11T16:37:18;38.88;;;20.95;;
33802;SDS011;20110;53.120;5.786;2022-11-11T16:39:45;48.60;;;24.30;;
33802;SDS011;20110;53.120;5.786;2022-11-11T16:44:57;50.67;;;26.75;;
33802;SDS011;20110;53.120;5.786;2022-11-11T16:50:01;49.67;;;25.73;;
33802;SDS011;20110;53.120;5.786;2022-11-11T16:53:09;49.28;;;25.30;;
33802;SDS011;20110;53.120;5.786;2022-11-11T16:55:38;51.10;;;25.80;;
33802;SDS011;20110;53.120;5.786;2022-11-11T17:00:42;45.47;;;20.20;;
33802;SDS011;20110;53.120;5.786;2022-11-11T17:03:13;43.53;;;24.88;;
33802;SDS011;20110;53.120;5.786;2022-11-11T17:05:55;52.28;;;27.80;;
33802;SDS011;20110;53.120;5.786;2022-11-11T17:11:04;51.42;;;27.13;;
33802;SDS011;20110;53.120;5.786;2022-11-11T17:13:33;57.78;;;26.00;;
33802;SDS011;20110;53.120;5.786;2022-11-11T17:16:00;45.28;;;25.42;;
33802;SDS011;20110;53.120;5.786;2022-11-11T17:18:38;47.17;;;26.30;;
33802;SDS011;20110;53.120;5.786;2022-11-11T17:21:05;51.50;;;23.98;;
33802;SDS011;20110;53.120;5.786;2022-11-11T17:23:31;45.47;;;25.50;;
33802;SDS011;20110;53.120;5.786;2022-11-11T17:25:58;49.28;;;26.38;;
33802;SDS011;20110;53.120;5.786;2022-11-11T17:28:25;50.17;;;25.20;;
33802;SDS011;20110;53.120;5.786;2022-11-11T17:30:55;52.25;;;26.65;;
33802;SDS011;20110;53.120;5.786;2022-11-11T17:33:24;56.30;;;28.17;;
33802;SDS011;20110;53.120;5.786;2022-11-11T17:35:52;56.30;;;27.23;;
33802;SDS011;20110;53.120;5.786;2022-11-11T17:38:18;53.17;;;27.23;;
33802;SDS011;20110;53.120;5.786;2022-11-11T17:40:45;60.63;;;28.27;;
33802;SDS011;20110;53.120;5.786;2022-11-11T17:43:12;38.97;;;23.52;;
33802;SDS011;20110;53.120;5.786;2022-11-11T17:45:39;55.47;;;28.45;;
33802;SDS011;20110;53.120;5.786;2022-11-11T17:48:06;51.83;;;28.33;;
33802;SDS011;20110;53.120;5.786;2022-11-11T17:50:37;63.90;;;30.10;;
33802;SDS011;20110;53.120;5.786;2022-11-11T17:53:07;54.97;;;28.45;;
33802;SDS011;20110;53.120;5.786;2022-11-11T17:55:33;61.03;;;28.33;;
33802;SDS011;20110;53.120;5.786;2022-11-11T17:58:00;58.72;;;28.10;;
33802;SDS011;20110;53.120;5.786;2022-11-11T18:00:26;56.78;;;27.35;;
33802;SDS011;20110;53.120;5.786;2022-11-11T18:02:53;52.08;;;25.38;;
33802;SDS011;20110;53.120;5.786;2022-11-11T18:05:20;53.88;;;26.35;;
33802;SDS011;20110;53.120;5.786;2022-11-11T18:07:46;50.28;;;25.70;;